LGRP/RHO METAR and TAF weather

Enter ICAO airport designator
Station Type Date Time Source
LGRP METAR 2019/08/25 18:20 UTC NOAA

LGRP 251820Z 25006KT CAVOK 28/22 Q1009 NOSIG


Station Type Date Time Source
LGRP Decoded METAR 2019/08/25 18:20 UTC NOAA

Station name not available
Aug 25, 2019 - 02:20 PM EDT / 2019.08.25 1820 UTC
Wind: from the WSW (250 degrees) at 7 MPH (6 KT):0
Visibility: greater than 7 mile(s):0
Temperature: 82 F (28 C)
Dew Point: 71 F (22 C)
Relative Humidity: 69%
Pressure (altimeter): 29.80 in. Hg (1009 hPa)
ob: LGRP 251820Z 25006KT CAVOK 28/22 Q1009 NOSIG
cycle: 18

Station Type Date Time Source
LGRP TAF 2019/08/25 18:15 UTC NOAA

TAF LGRP 251700Z 2518/2618 24010KT 9999 FEW020
BECMG 2518/2520 VRB05KT
BECMG 2606/2608 26015KT

Example: see airport list